Time;durP1;ratioP1;P1;durP2;ratioP2;P2;SDS_P1;SDS_P2;PMS_P1;PMS_P2;Temp;Humidity;BMP_temperature;BMP_pressure;BME280_temperature;BME280_humidity;BME280_pressure;Samples;Min_cycle;Max_cycle;Signal;HPM_P1;HPM_P2
2024/03/03 00:03:09;;;;;;;0.50;0.50;;;9.80;99.90;;;;;;10563268;28;20273;-78
2024/03/03 00:08:11;;;;;;;0.50;0.50;;;9.70;99.90;;;;;;10521295;28;20223;-79
2024/03/03 00:13:15;;;;;;;0.60;0.60;;;9.70;99.90;;;;;;10560844;28;20639;-79
2024/03/03 00:18:17;;;;;;;0.50;0.50;;;9.70;99.90;;;;;;10550657;28;20231;-78
2024/03/03 00:23:20;;;;;;;0.60;0.60;;;9.70;99.90;;;;;;10561974;28;20589;-78
2024/03/03 00:28:24;;;;;;;0.30;0.30;;;9.70;99.90;;;;;;10567717;28;20180;-78
2024/03/03 00:33:26;;;;;;;0.40;0.40;;;9.70;99.90;;;;;;10527130;28;20241;-79
2024/03/03 00:38:28;;;;;;;0.40;0.40;;;9.60;99.90;;;;;;10531799;28;20231;-78
2024/03/03 00:43:32;;;;;;;0.50;0.50;;;9.60;99.90;;;;;;10546348;28;20215;-79
2024/03/03 00:48:35;;;;;;;0.30;0.30;;;9.60;99.90;;;;;;10545512;28;20192;-78
2024/03/03 00:53:38;;;;;;;0.30;0.30;;;9.60;99.90;;;;;;10531304;28;20207;-78
2024/03/03 00:58:42;;;;;;;0.40;0.40;;;9.60;99.90;;;;;;10541025;28;20215;-79
2024/03/03 01:03:44;;;;;;;0.40;0.40;;;9.60;99.90;;;;;;10532920;28;20215;-80
2024/03/03 01:08:46;;;;;;;0.40;0.40;;;9.60;99.90;;;;;;10534600;28;20192;-78
2024/03/03 01:13:50;;;;;;;0.47;0.47;;;9.70;99.90;;;;;;10547776;28;20224;-80
2024/03/03 01:18:53;;;;;;;0.40;0.40;;;9.70;99.90;;;;;;10558897;28;20215;-79
2024/03/03 01:23:56;;;;;;;0.40;0.40;;;9.70;99.90;;;;;;10521921;28;20231;-78
2024/03/03 01:28:59;;;;;;;0.40;0.40;;;9.70;99.90;;;;;;10566271;28;20204;-80
2024/03/03 01:34:02;;;;;;;0.40;0.40;;;9.70;99.90;;;;;;10553512;28;20223;-81
2024/03/03 01:39:05;;;;;;;0.50;0.50;;;9.70;99.90;;;;;;10575559;28;20215;-82
2024/03/03 01:44:09;;;;;;;0.50;0.50;;;9.60;99.90;;;;;;10547739;28;20216;-78
2024/03/03 01:49:16;;;;;;;0.50;0.50;;;9.50;99.90;;;;;;10541620;28;20188;-80
2024/03/03 01:54:19;;;;;;;0.50;0.50;;;9.50;99.90;;;;;;10540292;28;20272;-79
2024/03/03 01:59:23;;;;;;;0.50;0.50;;;9.40;99.90;;;;;;10578481;28;20219;-79
2024/03/03 02:04:26;;;;;;;0.50;0.50;;;9.40;99.90;;;;;;10554997;28;20224;-80
2024/03/03 02:09:28;;;;;;;0.47;0.47;;;9.30;99.90;;;;;;10546393;28;20562;-78
2024/03/03 02:14:32;;;;;;;0.57;0.57;;;9.20;99.90;;;;;;10525271;28;20210;-81
2024/03/03 02:19:35;;;;;;;0.50;0.50;;;9.20;99.90;;;;;;10562583;28;20697;-79
2024/03/03 02:24:39;;;;;;;0.50;0.50;;;9.10;99.90;;;;;;10569447;28;20526;-78
2024/03/03 02:29:42;;;;;;;0.40;0.40;;;9.10;99.90;;;;;;10517816;28;20200;-78
2024/03/03 02:34:44;;;;;;;0.50;0.50;;;9.00;99.90;;;;;;10517444;28;20288;-80
2024/03/03 02:39:48;;;;;;;0.40;0.40;;;8.90;99.90;;;;;;10562915;28;20685;-80
2024/03/03 02:44:50;;;;;;;0.50;0.50;;;8.90;99.90;;;;;;10555620;28;20627;-80
2024/03/03 02:49:52;;;;;;;0.50;0.50;;;8.80;99.90;;;;;;10561294;28;20204;-80
2024/03/03 02:54:56;;;;;;;0.50;0.50;;;8.80;99.90;;;;;;10554414;28;20669;-78
2024/03/03 02:59:59;;;;;;;0.60;0.60;;;8.80;99.90;;;;;;10523129;28;20215;-79
2024/03/03 03:05:01;;;;;;;0.57;0.57;;;8.70;99.90;;;;;;10509665;28;20601;-81
2024/03/03 03:10:06;;;;;;;0.40;0.40;;;8.70;99.90;;;;;;10562710;28;20261;-79
2024/03/03 03:15:09;;;;;;;0.50;0.50;;;8.70;99.90;;;;;;10575903;28;20215;-78
2024/03/03 03:20:12;;;;;;;0.60;0.60;;;8.60;99.90;;;;;;10546727;28;20363;-80
2024/03/03 03:25:16;;;;;;;0.50;0.50;;;8.50;99.90;;;;;;10534530;28;20223;-78
2024/03/03 03:30:18;;;;;;;0.40;0.40;;;8.50;99.90;;;;;;10552060;28;20200;-80
2024/03/03 03:35:21;;;;;;;0.60;0.60;;;8.50;99.90;;;;;;10541501;28;20211;-79
2024/03/03 03:40:25;;;;;;;0.40;0.40;;;8.40;99.90;;;;;;10565192;28;20720;-80
2024/03/03 03:45:27;;;;;;;0.50;0.50;;;8.40;99.90;;;;;;10585747;28;20583;-81
2024/03/03 03:50:30;;;;;;;0.60;0.60;;;8.40;99.90;;;;;;10550866;28;20191;-80
2024/03/03 03:55:33;;;;;;;0.60;0.60;;;8.30;99.90;;;;;;10523362;28;20249;-80
2024/03/03 04:00:36;;;;;;;0.50;0.50;;;8.30;99.90;;;;;;10561633;28;20269;-78
2024/03/03 04:05:38;;;;;;;0.67;0.67;;;8.30;99.90;;;;;;10580523;28;20261;-77
2024/03/03 04:10:42;;;;;;;0.43;0.43;;;8.30;99.90;;;;;;10555613;28;20195;-78
2024/03/03 04:15:44;;;;;;;0.50;0.50;;;8.20;99.90;;;;;;10531378;28;20212;-79
2024/03/03 04:20:46;;;;;;;0.50;0.50;;;8.10;99.90;;;;;;10557709;28;20216;-79
2024/03/03 04:25:50;;;;;;;0.60;0.60;;;8.00;99.90;;;;;;10570527;28;20272;-79
2024/03/03 04:30:52;;;;;;;0.50;0.50;;;8.00;99.90;;;;;;10552705;28;20204;-78
2024/03/03 04:35:55;;;;;;;0.60;0.60;;;8.00;99.90;;;;;;10579685;28;20636;-79
2024/03/03 04:40:58;;;;;;;0.40;0.40;;;7.90;99.90;;;;;;10556735;28;20260;-79
2024/03/03 04:46:01;;;;;;;0.50;0.50;;;7.90;99.90;;;;;;10538366;28;20672;-78
2024/03/03 04:51:04;;;;;;;0.40;0.40;;;7.90;99.90;;;;;;10541907;28;20695;-79
2024/03/03 04:56:07;;;;;;;0.70;0.70;;;7.90;99.90;;;;;;10558515;28;20219;-79
2024/03/03 05:01:10;;;;;;;0.50;0.50;;;8.00;99.90;;;;;;10548131;28;20340;-77
2024/03/03 05:06:12;;;;;;;0.60;0.60;;;8.00;99.90;;;;;;10574822;28;20264;-80
2024/03/03 05:11:17;;;;;;;0.50;0.50;;;8.00;99.90;;;;;;10562411;28;20248;-79
2024/03/03 05:16:19;;;;;;;0.50;0.50;;;7.90;99.90;;;;;;10525522;28;20223;-80
2024/03/03 05:21:21;;;;;;;0.50;0.50;;;7.90;99.90;;;;;;10550406;28;20211;-78
2024/03/03 05:26:25;;;;;;;0.60;0.60;;;7.90;99.90;;;;;;10561767;28;20695;-80
2024/03/03 05:31:35;;;;;;;0.60;0.60;;;7.90;99.90;;;;;;10566276;28;20191;-79
2024/03/03 05:36:37;;;;;;;0.60;0.60;;;7.80;99.90;;;;;;10539285;28;20216;-78
2024/03/03 05:41:41;;;;;;;0.70;0.70;;;7.80;99.90;;;;;;10555886;28;20768;-77
2024/03/03 05:46:43;;;;;;;0.70;0.70;;;7.80;99.90;;;;;;10541156;28;20219;-79
2024/03/03 05:51:45;;;;;;;0.60;0.60;;;7.80;99.90;;;;;;10559272;28;20183;-79
2024/03/03 05:56:49;;;;;;;0.60;0.60;;;7.80;99.90;;;;;;10546038;28;20570;-79
2024/03/03 06:01:53;;;;;;;0.50;0.50;;;7.70;99.90;;;;;;10547021;28;20669;-79
2024/03/03 06:06:56;;;;;;;0.60;0.60;;;7.70;99.90;;;;;;10546589;28;20581;-80
2024/03/03 06:12:00;;;;;;;0.40;0.40;;;7.70;99.90;;;;;;10561504;28;20207;-78
2024/03/03 06:17:02;;;;;;;0.60;0.60;;;7.60;99.90;;;;;;10550149;28;20206;-78
2024/03/03 06:22:05;;;;;;;0.70;0.70;;;7.50;99.90;;;;;;10535256;28;20228;-78
2024/03/03 06:27:08;;;;;;;0.60;0.60;;;7.50;99.90;;;;;;10535153;28;20676;-80
2024/03/03 06:32:11;;;;;;;0.40;0.40;;;7.60;99.90;;;;;;10535843;28;20224;-80
2024/03/03 06:37:15;;;;;;;0.60;0.60;;;7.70;99.90;;;;;;10542626;28;20198;-78
2024/03/03 06:42:19;;;;;;;0.60;0.60;;;7.70;99.90;;;;;;10533967;28;20478;-78
2024/03/03 06:47:22;;;;;;;0.80;0.80;;;7.70;99.90;;;;;;10531980;28;20722;-79
2024/03/03 06:52:24;;;;;;;0.60;0.60;;;7.80;99.90;;;;;;10533217;28;20226;-78
2024/03/03 06:57:28;;;;;;;0.70;0.70;;;7.90;99.90;;;;;;10532622;28;20199;-78
2024/03/03 07:07:47;;;;;;;0.50;0.50;;;8.10;99.90;;;;;;10540825;28;20613;-79
2024/03/03 07:12:50;;;;;;;0.73;0.73;;;8.30;99.90;;;;;;10542465;28;20701;-80
2024/03/03 07:17:53;;;;;;;0.60;0.60;;;8.40;99.90;;;;;;10530074;28;20195;-78
2024/03/03 07:22:55;;;;;;;0.60;0.60;;;8.60;99.90;;;;;;10541387;28;20219;-78
2024/03/03 07:28:00;;;;;;;0.87;0.87;;;8.70;99.90;;;;;;10541879;28;20203;-78
2024/03/03 07:33:02;;;;;;;0.70;0.70;;;8.90;99.90;;;;;;10541402;28;20216;-81
2024/03/03 07:38:05;;;;;;;0.77;0.77;;;9.20;99.90;;;;;;10543096;28;20212;-79
2024/03/03 07:43:09;;;;;;;0.70;0.70;;;9.40;99.90;;;;;;10544651;28;20211;-79
2024/03/03 07:48:11;;;;;;;0.50;0.50;;;9.50;99.90;;;;;;10541316;28;20206;-78
2024/03/03 07:53:14;;;;;;;0.70;0.70;;;9.70;99.90;;;;;;10525597;28;20204;-78
2024/03/03 07:58:17;;;;;;;0.60;0.60;;;9.90;99.90;;;;;;10536840;28;20662;-79
2024/03/03 08:03:20;;;;;;;0.50;0.50;;;10.10;99.90;;;;;;10526289;28;20222;-81
2024/03/03 08:08:22;;;;;;;0.63;0.63;;;10.20;99.90;;;;;;10540490;28;20620;-82
2024/03/03 08:13:26;;;;;;;0.50;0.50;;;10.30;99.90;;;;;;10541913;28;20221;-80
2024/03/03 08:18:28;;;;;;;0.60;0.60;;;10.50;99.90;;;;;;10537097;28;20208;-80
2024/03/03 08:23:31;;;;;;;0.50;0.50;;;10.60;99.90;;;;;;10529916;28;20226;-80
2024/03/03 08:28:35;;;;;;;0.50;0.50;;;10.70;99.90;;;;;;10539536;28;20196;-81
2024/03/03 08:33:38;;;;;;;0.50;0.50;;;10.90;99.90;;;;;;10541963;28;20212;-80
2024/03/03 08:38:40;;;;;;;0.60;0.60;;;11.00;99.90;;;;;;10540752;28;20253;-79
2024/03/03 08:43:44;;;;;;;0.50;0.50;;;11.20;99.90;;;;;;10540548;28;20219;-81
2024/03/03 08:48:46;;;;;;;0.50;0.50;;;11.30;99.80;;;;;;10538321;28;20200;-80
2024/03/03 08:53:49;;;;;;;0.40;0.40;;;11.40;99.90;;;;;;10531573;28;20224;-77
2024/03/03 08:58:52;;;;;;;0.60;0.60;;;11.40;99.60;;;;;;10537548;28;20772;-78
2024/03/03 09:03:55;;;;;;;0.50;0.50;;;11.50;99.40;;;;;;10537512;28;20586;-79
2024/03/03 09:08:58;;;;;;;0.47;0.47;;;11.50;99.00;;;;;;10539339;28;20572;-80
2024/03/03 09:14:02;;;;;;;0.40;0.40;;;11.50;99.20;;;;;;10538593;28;20220;-77
2024/03/03 09:19:04;;;;;;;0.40;0.40;;;11.70;99.10;;;;;;10537473;28;20208;-80
2024/03/03 09:24:07;;;;;;;0.40;0.40;;;11.80;99.10;;;;;;10538842;28;20262;-80
2024/03/03 09:29:11;;;;;;;0.50;0.50;;;11.80;99.00;;;;;;10542321;28;20207;-80
2024/03/03 09:34:13;;;;;;;0.40;0.40;;;11.90;99.00;;;;;;10532317;28;20215;-80
2024/03/03 09:39:15;;;;;;;0.40;0.40;;;12.00;98.90;;;;;;10541448;28;20599;-80
2024/03/03 09:44:22;;;;;;;0.50;0.50;;;12.10;98.90;;;;;;10536812;28;20212;-79
2024/03/03 09:49:25;;;;;;;0.50;0.50;;;12.30;99.20;;;;;;10536460;28;20196;-79
2024/03/03 09:54:29;;;;;;;0.40;0.40;;;12.50;98.80;;;;;;10519015;28;20212;-79
2024/03/03 09:59:33;;;;;;;0.40;0.40;;;12.60;98.40;;;;;;10502672;28;20195;-81
2024/03/03 10:04:38;;;;;;;0.40;0.40;;;12.60;98.40;;;;;;10537096;28;20281;-81
2024/03/03 10:09:41;;;;;;;0.40;0.40;;;12.80;98.40;;;;;;10532099;28;20204;-80
2024/03/03 10:14:47;;;;;;;0.30;0.30;;;12.80;98.00;;;;;;10545950;28;20992;-79
2024/03/03 10:19:49;;;;;;;0.50;0.50;;;12.80;98.00;;;;;;10545235;28;20524;-77
2024/03/03 10:25:09;;;;;;;0.43;0.43;;;12.70;98.00;;;;;;10534736;28;20687;-78
2024/03/03 10:30:17;;;;;;;0.40;0.40;;;12.70;97.90;;;;;;10534329;28;20250;-78
2024/03/03 10:35:19;;;;;;;0.43;0.43;;;12.60;97.90;;;;;;10518364;28;20612;-79
2024/03/03 10:40:22;;;;;;;0.40;0.40;;;12.60;97.90;;;;;;10525502;28;20241;-78
2024/03/03 10:45:26;;;;;;;0.40;0.40;;;12.50;97.90;;;;;;10543570;28;20272;-79
2024/03/03 10:50:28;;;;;;;0.40;0.40;;;12.40;98.00;;;;;;10535429;28;20284;-81
2024/03/03 10:55:31;;;;;;;0.40;0.40;;;12.50;98.20;;;;;;10543937;28;20215;-79
2024/03/03 11:00:36;;;;;;;0.50;0.50;;;12.60;98.30;;;;;;10542852;28;20215;-79
2024/03/03 11:05:39;;;;;;;0.50;0.50;;;12.60;98.40;;;;;;10542022;28;20269;-79
2024/03/03 11:10:42;;;;;;;0.43;0.43;;;12.70;98.40;;;;;;10542083;28;20192;-79
2024/03/03 11:15:50;;;;;;;0.40;0.40;;;12.80;98.50;;;;;;10540942;28;20277;-81
2024/03/03 11:20:54;;;;;;;0.50;0.50;;;12.80;98.30;;;;;;10536378;28;20234;-79
2024/03/03 11:26:11;;;;;;;0.50;0.50;;;12.90;98.30;;;;;;10542777;28;20258;-79
2024/03/03 11:31:15;;;;;;;0.50;0.50;;;12.90;98.10;;;;;;10542165;28;20199;-81
2024/03/03 11:36:18;;;;;;;0.50;0.50;;;12.90;98.20;;;;;;10546405;28;20245;-80
2024/03/03 11:41:21;;;;;;;0.40;0.40;;;12.90;98.10;;;;;;10535112;28;20909;-82
2024/03/03 11:46:48;;;;;;;0.50;0.50;;;13.00;97.90;;;;;;10542552;28;20212;-80
2024/03/03 11:51:50;;;;;;;0.40;0.40;;;13.00;98.00;;;;;;10535409;28;20204;-82
2024/03/03 11:56:53;;;;;;;0.50;0.50;;;13.00;98.20;;;;;;10542110;28;20237;-81
2024/03/03 12:01:59;;;;;;;0.50;0.50;;;12.90;98.30;;;;;;10537342;28;20228;-84
2024/03/03 12:07:06;;;;;;;0.60;0.60;;;13.00;98.80;;;;;;10532369;28;20204;-80
2024/03/03 12:12:09;;;;;;;0.60;0.60;;;13.10;98.90;;;;;;10542195;28;20292;-81
2024/03/03 12:17:13;;;;;;;0.50;0.50;;;13.20;98.10;;;;;;10542065;28;20195;-81
2024/03/03 12:22:16;;;;;;;0.50;0.50;;;13.40;97.70;;;;;;10546976;28;20272;-81
2024/03/03 12:27:18;;;;;;;0.40;0.40;;;13.50;97.40;;;;;;10545058;28;20532;-79
2024/03/03 12:32:22;;;;;;;0.60;0.60;;;13.50;96.80;;;;;;10539246;28;20619;-80
2024/03/03 12:37:25;;;;;;;0.50;0.50;;;13.50;96.50;;;;;;10539339;28;20199;-79
2024/03/03 12:42:27;;;;;;;0.60;0.60;;;13.50;96.20;;;;;;10539157;28;20648;-82
2024/03/03 12:47:31;;;;;;;0.50;0.50;;;13.60;96.30;;;;;;10521455;28;20568;-83
2024/03/03 12:52:33;;;;;;;0.40;0.40;;;13.60;96.40;;;;;;10539079;28;20794;-80
2024/03/03 12:57:36;;;;;;;0.40;0.40;;;13.60;96.10;;;;;;10536249;28;20200;-81
2024/03/03 13:02:40;;;;;;;0.60;0.60;;;13.60;96.30;;;;;;10529646;28;20224;-81
2024/03/03 13:07:47;;;;;;;0.50;0.50;;;13.70;96.30;;;;;;10538924;28;20192;-79
2024/03/03 13:12:50;;;;;;;0.50;0.50;;;13.60;96.50;;;;;;10539372;28;20297;-80
2024/03/03 13:18:14;;;;;;;0.40;0.40;;;13.60;96.40;;;;;;10539143;28;20206;-79
2024/03/03 13:23:18;;;;;;;0.40;0.40;;;13.50;96.40;;;;;;10540621;28;20227;-81
2024/03/03 13:28:20;;;;;;;0.40;0.40;;;13.40;96.50;;;;;;10542907;28;20200;-81
2024/03/03 13:33:24;;;;;;;0.40;0.40;;;13.40;95.50;;;;;;10540160;28;20277;-80
2024/03/03 13:38:27;;;;;;;0.50;0.50;;;13.60;93.90;;;;;;10541500;28;20196;-81
2024/03/03 13:43:30;;;;;;;0.40;0.40;;;13.70;92.30;;;;;;10539228;28;20226;-80
2024/03/03 13:48:36;;;;;;;0.50;0.50;;;13.80;92.10;;;;;;10539861;28;20199;-80
2024/03/03 13:53:38;;;;;;;0.37;0.37;;;13.80;92.30;;;;;;10541066;28;20277;-79
2024/03/03 13:58:40;;;;;;;0.50;0.50;;;14.00;89.90;;;;;;10540833;28;20241;-83
2024/03/03 14:03:44;;;;;;;0.40;0.40;;;14.20;89.60;;;;;;10540601;28;20220;-81
2024/03/03 14:08:47;;;;;;;0.50;0.50;;;14.30;88.50;;;;;;10543332;28;20196;-81
2024/03/03 14:13:49;;;;;;;0.40;0.40;;;14.50;81.60;;;;;;10533267;28;20740;-80
2024/03/03 14:18:57;;;;;;;0.40;0.40;;;14.70;86.40;;;;;;10537515;28;20210;-79
2024/03/03 14:23:59;;;;;;;0.50;0.50;;;14.80;83.30;;;;;;10537615;28;20238;-80
2024/03/03 14:29:01;;;;;;;0.50;0.50;;;14.90;80.80;;;;;;10536429;28;20207;-82
2024/03/03 14:34:05;;;;;;;0.40;0.40;;;14.90;83.20;;;;;;10537792;28;20290;-78
2024/03/03 14:39:11;;;;;;;0.50;0.50;;;14.90;86.40;;;;;;10537059;28;20241;-81
2024/03/03 14:44:13;;;;;;;0.50;0.50;;;14.90;79.10;;;;;;10537910;28;20228;-82
2024/03/03 14:49:17;;;;;;;0.50;0.50;;;15.20;74.40;;;;;;10536226;28;20196;-81
2024/03/03 14:54:19;;;;;;;0.50;0.50;;;15.50;74.00;;;;;;10537321;28;20216;-80
2024/03/03 14:59:21;;;;;;;0.60;0.60;;;15.80;73.00;;;;;;10537722;28;20196;-82
2024/03/03 15:04:25;;;;;;;0.50;0.50;;;15.90;75.20;;;;;;10537736;28;20220;-81
2024/03/03 15:09:28;;;;;;;0.50;0.50;;;15.90;72.00;;;;;;10537675;28;20192;-81
2024/03/03 15:14:30;;;;;;;0.50;0.50;;;15.80;75.20;;;;;;10537287;28;20214;-81
2024/03/03 15:19:33;;;;;;;0.40;0.40;;;15.60;77.00;;;;;;10542824;28;20192;-79
2024/03/03 15:24:37;;;;;;;0.53;0.53;;;15.50;73.80;;;;;;10540366;28;20234;-80
2024/03/03 15:29:40;;;;;;;0.57;0.57;;;15.50;65.40;;;;;;10544601;28;20192;-81
2024/03/03 15:34:43;;;;;;;0.40;0.40;;;15.60;69.40;;;;;;10545919;28;20203;-81
2024/03/03 15:39:46;;;;;;;0.50;0.50;;;15.60;64.60;;;;;;10537220;28;20685;-82
2024/03/03 15:44:48;;;;;;;0.53;0.53;;;15.70;62.40;;;;;;10545317;28;20285;-81
2024/03/03 15:49:52;;;;;;;0.50;0.50;;;15.60;62.30;;;;;;10543474;28;20203;-81
2024/03/03 15:54:54;;;;;;;0.40;0.40;;;15.60;64.80;;;;;;10545165;28;20204;-81
2024/03/03 15:59:57;;;;;;;0.50;0.50;;;15.50;67.60;;;;;;10544256;28;20216;-80
2024/03/03 16:05:00;;;;;;;0.40;0.40;;;15.50;69.70;;;;;;10552980;28;20216;-79
2024/03/03 16:10:03;;;;;;;0.30;0.30;;;15.30;73.60;;;;;;10544146;28;20676;-81
2024/03/03 16:15:06;;;;;;;0.40;0.40;;;15.30;74.80;;;;;;10545036;28;20227;-79
2024/03/03 16:20:11;;;;;;;0.40;0.40;;;15.20;76.10;;;;;;10543797;28;20204;-80
2024/03/03 16:25:15;;;;;;;0.40;0.40;;;15.10;76.60;;;;;;10541903;28;20246;-79
2024/03/03 16:30:17;;;;;;;0.40;0.40;;;15.00;77.20;;;;;;10517306;28;20236;-79
2024/03/03 16:35:21;;;;;;;0.40;0.40;;;14.90;77.90;;;;;;10546777;28;20228;-81
2024/03/03 16:40:24;;;;;;;0.40;0.40;;;14.80;78.10;;;;;;10529500;28;20561;-79
2024/03/03 16:45:26;;;;;;;0.40;0.40;;;14.70;78.80;;;;;;10534504;28;20941;-81
2024/03/03 16:50:30;;;;;;;0.50;0.50;;;14.60;79.60;;;;;;10535951;28;20191;-82
2024/03/03 16:55:33;;;;;;;0.50;0.50;;;14.40;79.90;;;;;;10531628;28;20708;-81
2024/03/03 17:00:35;;;;;;;0.40;0.40;;;14.30;80.50;;;;;;10525595;28;20244;-83
2024/03/03 17:05:39;;;;;;;0.40;0.40;;;14.10;80.90;;;;;;10511605;28;20296;-80
2024/03/03 17:10:41;;;;;;;0.50;0.50;;;13.90;81.00;;;;;;10515526;28;20222;-81
2024/03/03 17:15:43;;;;;;;0.50;0.50;;;13.80;80.70;;;;;;10528871;28;20992;-79
2024/03/03 17:20:48;;;;;;;0.30;0.30;;;13.70;81.10;;;;;;10507093;28;20205;-80
2024/03/03 17:25:50;;;;;;;0.40;0.40;;;13.50;81.00;;;;;;10530133;28;20223;-78
2024/03/03 17:30:53;;;;;;;0.30;0.30;;;13.40;81.10;;;;;;10530578;28;20205;-78
2024/03/03 17:35:59;;;;;;;0.40;0.40;;;13.20;81.30;;;;;;10529877;28;20223;-82
2024/03/03 17:41:01;;;;;;;0.30;0.30;;;13.10;80.90;;;;;;10522055;28;20195;-79
2024/03/03 17:46:04;;;;;;;0.40;0.40;;;12.90;80.70;;;;;;10512965;28;20224;-80
2024/03/03 17:51:07;;;;;;;0.40;0.40;;;12.70;81.00;;;;;;10530706;28;20249;-77
2024/03/03 17:56:10;;;;;;;0.40;0.40;;;12.50;81.20;;;;;;10531948;28;20204;-81
2024/03/03 18:01:13;;;;;;;0.40;0.40;;;12.40;81.70;;;;;;10519535;28;20212;-80
2024/03/03 18:06:19;;;;;;;0.30;0.30;;;12.40;82.60;;;;;;10543027;28;20759;-78
2024/03/03 18:11:21;;;;;;;0.30;0.30;;;12.30;82.70;;;;;;10515623;28;20204;-80
2024/03/03 18:16:24;;;;;;;0.30;0.30;;;12.30;82.90;;;;;;10539726;28;20231;-80
2024/03/03 18:21:27;;;;;;;0.30;0.30;;;12.20;83.50;;;;;;10528486;28;20196;-79
2024/03/03 18:26:30;;;;;;;0.30;0.30;;;12.10;84.00;;;;;;10532042;28;20216;-78
2024/03/03 18:31:33;;;;;;;0.30;0.30;;;11.90;84.30;;;;;;10518663;28;20201;-78
2024/03/03 18:36:37;;;;;;;0.30;0.30;;;11.90;84.90;;;;;;10521260;28;20220;-78
2024/03/03 18:41:40;;;;;;;0.30;0.30;;;11.80;85.10;;;;;;10528888;28;20482;-77
2024/03/03 18:46:43;;;;;;;0.30;0.30;;;11.70;85.50;;;;;;10517030;28;20232;-78
2024/03/03 18:51:47;;;;;;;0.30;0.30;;;11.70;86.10;;;;;;10521794;28;20199;-78
2024/03/03 18:56:49;;;;;;;0.20;0.20;;;11.60;86.60;;;;;;10518148;28;20245;-79
2024/03/03 19:01:54;;;;;;;0.40;0.40;;;11.60;87.20;;;;;;10540710;28;20780;-78
2024/03/03 19:07:01;;;;;;;0.30;0.30;;;11.50;87.80;;;;;;10518442;28;20216;-78
2024/03/03 19:12:03;;;;;;;0.30;0.30;;;11.40;88.10;;;;;;10540810;28;20199;-81
2024/03/03 19:17:07;;;;;;;0.20;0.20;;;11.30;88.90;;;;;;10523709;28;20192;-79
2024/03/03 19:22:11;;;;;;;0.23;0.23;;;11.30;89.80;;;;;;10533616;28;20239;-80
2024/03/03 19:27:14;;;;;;;0.30;0.30;;;11.20;90.10;;;;;;10528740;28;20638;-80
2024/03/03 19:32:16;;;;;;;0.20;0.20;;;11.20;90.50;;;;;;10525620;28;20756;-79
2024/03/03 19:37:20;;;;;;;0.30;0.30;;;11.10;90.80;;;;;;10524459;28;20196;-79
2024/03/03 19:42:22;;;;;;;0.30;0.30;;;11.10;91.10;;;;;;10511509;28;20215;-80
2024/03/03 19:47:25;;;;;;;0.30;0.30;;;11.00;91.80;;;;;;10527258;28;20771;-80
2024/03/03 19:52:29;;;;;;;0.30;0.30;;;11.00;91.90;;;;;;10524081;28;20223;-80
2024/03/03 19:57:31;;;;;;;0.23;0.23;;;10.90;92.20;;;;;;10535899;28;20248;-78
2024/03/03 20:02:34;;;;;;;0.30;0.30;;;10.90;92.50;;;;;;10538580;28;20217;-79
2024/03/03 20:07:37;;;;;;;0.40;0.40;;;10.80;92.80;;;;;;10540083;28;20218;-79
2024/03/03 20:12:40;;;;;;;0.30;0.30;;;10.80;93.10;;;;;;10500572;28;20224;-79
2024/03/03 20:17:42;;;;;;;0.30;0.30;;;10.80;93.40;;;;;;10540899;28;20661;-81
2024/03/03 20:22:47;;;;;;;0.40;0.40;;;10.70;93.60;;;;;;10531164;28;20293;-79
2024/03/03 20:27:49;;;;;;;0.30;0.30;;;10.70;93.90;;;;;;10527235;28;20223;-81
2024/03/03 20:32:52;;;;;;;0.20;0.20;;;10.60;94.00;;;;;;10532867;28;20216;-78
2024/03/03 20:37:56;;;;;;;0.30;0.30;;;10.60;94.20;;;;;;10523166;28;20734;-82
2024/03/03 20:42:59;;;;;;;0.30;0.30;;;10.50;94.30;;;;;;10534694;28;20297;-80
2024/03/03 20:48:02;;;;;;;0.30;0.30;;;10.50;94.40;;;;;;10529467;28;20204;-80
2024/03/03 20:53:06;;;;;;;0.30;0.30;;;10.50;94.50;;;;;;10552347;28;20216;-79
2024/03/03 20:58:09;;;;;;;0.40;0.40;;;10.50;94.60;;;;;;10506583;28;20271;-81
2024/03/03 21:03:11;;;;;;;0.20;0.20;;;10.40;94.70;;;;;;10534898;28;20219;-79
2024/03/03 21:08:15;;;;;;;0.30;0.30;;;10.30;94.80;;;;;;10521230;28;20297;-80
2024/03/03 21:13:18;;;;;;;0.33;0.33;;;10.20;95.00;;;;;;10532218;28;20257;-81
2024/03/03 21:18:20;;;;;;;0.30;0.30;;;10.20;95.20;;;;;;10531113;28;20211;-78
2024/03/03 21:23:24;;;;;;;0.40;0.40;;;10.10;95.30;;;;;;10541482;28;20219;-80
2024/03/03 21:28:27;;;;;;;0.50;0.50;;;10.10;95.50;;;;;;10534062;28;20197;-77
2024/03/03 21:33:29;;;;;;;0.30;0.30;;;10.20;95.60;;;;;;10542885;28;20231;-78
2024/03/03 21:38:33;;;;;;;0.40;0.40;;;10.20;95.40;;;;;;10526842;28;20196;-78
2024/03/03 21:43:36;;;;;;;0.40;0.40;;;10.20;95.40;;;;;;10538461;28;20220;-79
2024/03/03 21:48:39;;;;;;;0.40;0.40;;;10.10;95.60;;;;;;10522510;28;20192;-78
2024/03/03 21:53:43;;;;;;;0.37;0.37;;;10.10;95.60;;;;;;10537178;28;20673;-79
2024/03/03 21:58:45;;;;;;;0.30;0.30;;;10.00;95.60;;;;;;10536371;28;20257;-79
2024/03/03 22:03:48;;;;;;;0.40;0.40;;;10.00;95.60;;;;;;10514583;28;20220;-78
2024/03/03 22:08:52;;;;;;;0.40;0.40;;;10.00;95.60;;;;;;10508403;28;20273;-79
2024/03/03 22:13:55;;;;;;;0.40;0.40;;;9.90;96.10;;;;;;10526279;28;20239;-77
2024/03/03 22:18:57;;;;;;;0.50;0.50;;;10.00;95.70;;;;;;10512359;28;20211;-78
2024/03/03 22:24:02;;;;;;;0.40;0.40;;;9.90;96.20;;;;;;10509333;28;20225;-78
2024/03/03 22:29:05;;;;;;;0.40;0.40;;;10.00;95.90;;;;;;10524085;28;20195;-77
2024/03/03 22:34:07;;;;;;;0.37;0.37;;;9.90;96.60;;;;;;10550686;28;20239;-77
2024/03/03 22:39:11;;;;;;;0.30;0.30;;;9.90;96.60;;;;;;10536718;28;20217;-79
2024/03/03 22:44:13;;;;;;;0.40;0.40;;;9.90;96.70;;;;;;10551019;28;20215;-79
2024/03/03 22:49:15;;;;;;;0.40;0.40;;;9.90;96.90;;;;;;10546170;28;20195;-78
2024/03/03 22:54:20;;;;;;;0.50;0.50;;;9.90;97.10;;;;;;10574017;28;20262;-78
2024/03/03 22:59:22;;;;;;;0.40;0.40;;;9.90;97.10;;;;;;10583179;28;20198;-78
2024/03/03 23:04:24;;;;;;;0.40;0.40;;;9.90;97.30;;;;;;10565019;28;20655;-79
2024/03/03 23:09:28;;;;;;;0.40;0.40;;;9.90;97.40;;;;;;10548394;28;20666;-79
2024/03/03 23:14:30;;;;;;;0.60;0.60;;;9.90;97.70;;;;;;10549246;28;20211;-77
2024/03/03 23:19:33;;;;;;;0.50;0.50;;;9.90;97.90;;;;;;10554478;28;20288;-78
2024/03/03 23:24:36;;;;;;;0.50;0.50;;;9.80;97.90;;;;;;10551995;28;20218;-77
2024/03/03 23:29:39;;;;;;;0.50;0.50;;;9.90;98.50;;;;;;10546108;28;20621;-77
2024/03/03 23:34:41;;;;;;;0.60;0.60;;;9.90;98.30;;;;;;10573953;28;20223;-79
2024/03/03 23:39:45;;;;;;;0.50;0.50;;;9.90;98.30;;;;;;10547678;28;20333;-79
2024/03/03 23:44:47;;;;;;;0.53;0.53;;;9.90;98.30;;;;;;10527436;28;20734;-81
2024/03/03 23:49:50;;;;;;;0.40;0.40;;;9.90;98.40;;;;;;10543878;28;20607;-78
2024/03/03 23:54:53;;;;;;;0.53;0.53;;;9.90;98.50;;;;;;10547309;28;20717;-80
2024/03/03 23:59:56;;;;;;;0.50;0.50;;;9.90;98.60;;;;;;10539124;28;20644;-79
